LEZG/ZAZ METAR and TAF weather

Enter ICAO airport designator
Station Type Date Time Source
LEZG METAR 2021/07/24 21:30 UTC NOAA

LEZG 242130Z 27009KT CAVOK 24/11 Q1012


Station Type Date Time Source
LEZG Decoded METAR 2021/07/24 21:30 UTC NOAA

Zaragoza / Aeropuerto, Spain (LEZG) 41-40N 001-01W 258M
Jul 24, 2021 - 05:30 PM EDT / 2021.07.24 2130 UTC
Wind: from the W (270 degrees) at 10 MPH (9 KT):0
Visibility: greater than 7 mile(s):0
Temperature: 75 F (24 C)
Dew Point: 51 F (11 C)
Relative Humidity: 43%
Pressure (altimeter): 29.88 in. Hg (1012 hPa)
ob: LEZG 242130Z 27009KT CAVOK 24/11 Q1012
cycle: 21

Station Type Date Time Source
LEZG TAF 2021/07/24 18:27 UTC NOAA

TAF LEZG 241700Z 2418/2518 30014KT 9999 FEW050 TX30/2515Z TN18/2506Z
TEMPO 2418/2422 33015G25KT

Example: see airport list